Time;durP1;ratioP1;P1;durP2;ratioP2;P2;SDS_P1;SDS_P2;PMS_P1;PMS_P2;Temp;Humidity;BMP_temperature;BMP_pressure;BME280_temperature;BME280_humidity;BME280_pressure;Samples;Min_cycle;Max_cycle;Signal;HPM_P1;HPM_P2
2023/08/24 00:00:23;;;;;;;7.78;4.75;;;;;;;;;;5042125;28;20427;-61
2023/08/24 00:02:50;;;;;;;7.37;4.97;;;;;;;;;;5044770;28;20828;-62
2023/08/24 00:05:17;;;;;;;6.22;5.20;;;;;;;;;;5045127;28;20447;-61
2023/08/24 00:07:44;;;;;;;6.07;5.10;;;;;;;;;;5048368;28;20409;-61
2023/08/24 00:10:11;;;;;;;7.00;5.20;;;;;;;;;;5045514;28;20480;-61
2023/08/24 00:12:39;;;;;;;8.27;5.80;;;;;;;;;;5043992;28;20474;-61
2023/08/24 00:15:07;;;;;;;8.57;5.18;;;;;;;;;;5045584;28;20467;-61
2023/08/24 00:17:35;;;;;;;8.13;5.32;;;;;;;;;;5044012;28;20896;-61
2023/08/24 00:20:04;;;;;;;7.53;5.80;;;;;;;;;;5045105;28;20433;-61
2023/08/24 00:22:30;;;;;;;11.07;6.38;;;;;;;;;;5049576;28;20492;-61
2023/08/24 00:24:57;;;;;;;9.73;6.20;;;;;;;;;;5048214;28;20409;-61
2023/08/24 00:27:24;;;;;;;10.43;6.28;;;;;;;;;;5040920;28;20411;-61
2023/08/24 00:29:51;;;;;;;13.13;7.63;;;;;;;;;;5040197;28;20419;-61
2023/08/24 00:32:18;;;;;;;11.23;6.97;;;;;;;;;;5043028;28;20451;-61
2023/08/24 00:34:47;;;;;;;10.48;6.25;;;;;;;;;;5044451;28;20884;-61
2023/08/24 00:37:14;;;;;;;9.70;6.72;;;;;;;;;;5039655;28;20461;-61
2023/08/24 00:39:41;;;;;;;10.93;6.43;;;;;;;;;;5047034;28;20505;-61
2023/08/24 00:42:13;;;;;;;11.35;6.80;;;;;;;;;;5040645;28;20411;-61
2023/08/24 00:44:40;;;;;;;11.52;7.15;;;;;;;;;;5048441;28;20413;-61
2023/08/24 00:47:07;;;;;;;8.02;6.90;;;;;;;;;;5043290;28;21111;-61
2023/08/24 00:49:34;;;;;;;12.10;6.93;;;;;;;;;;5045210;28;20469;-61
2023/08/24 00:52:02;;;;;;;10.60;7.28;;;;;;;;;;5046845;28;20409;-61
2023/08/24 00:54:30;;;;;;;11.52;7.72;;;;;;;;;;5045616;28;20950;-61
2023/08/24 00:56:57;;;;;;;13.98;8.02;;;;;;;;;;5042898;28;20471;-61
2023/08/24 00:59:24;;;;;;;11.30;7.10;;;;;;;;;;5046041;28;20955;-61
2023/08/24 01:01:52;;;;;;;10.53;6.80;;;;;;;;;;5045600;28;20433;-60
2023/08/24 01:04:19;;;;;;;9.20;6.55;;;;;;;;;;5045650;28;20441;-61
2023/08/24 01:06:46;;;;;;;10.10;6.78;;;;;;;;;;5042817;28;20467;-61
2023/08/24 01:09:15;;;;;;;13.30;7.43;;;;;;;;;;5046420;28;20475;-61
2023/08/24 01:11:47;;;;;;;10.73;8.13;;;;;;;;;;5049089;28;20528;-61
2023/08/24 01:14:21;;;;;;;13.70;8.15;;;;;;;;;;5043626;28;20926;-61
2023/08/24 01:16:49;;;;;;;11.38;7.97;;;;;;;;;;5045289;28;20409;-61
2023/08/24 01:19:23;;;;;;;13.33;8.13;;;;;;;;;;5045915;28;20495;-61
2023/08/24 01:21:50;;;;;;;12.20;8.40;;;;;;;;;;5044779;28;20421;-61
2023/08/24 01:24:21;;;;;;;13.13;8.65;;;;;;;;;;5042325;28;20511;-61
2023/08/24 01:26:50;;;;;;;11.63;7.97;;;;;;;;;;5045307;28;20427;-61
2023/08/24 01:29:17;;;;;;;11.63;8.35;;;;;;;;;;5045237;28;20429;-61
2023/08/24 01:31:44;;;;;;;12.52;8.18;;;;;;;;;;5040940;28;20410;-61
2023/08/24 01:34:11;;;;;;;9.60;7.68;;;;;;;;;;5041750;28;21073;-61
2023/08/24 01:36:39;;;;;;;10.57;7.55;;;;;;;;;;5048369;28;20421;-61
2023/08/24 01:39:09;;;;;;;13.48;7.40;;;;;;;;;;5042842;28;20417;-61
2023/08/24 01:41:38;;;;;;;9.15;6.93;;;;;;;;;;5046300;28;20473;-61
2023/08/24 01:44:08;;;;;;;9.77;7.50;;;;;;;;;;5041969;28;20417;-61
2023/08/24 01:46:35;;;;;;;11.45;7.20;;;;;;;;;;5045453;28;20421;-61
2023/08/24 01:49:03;;;;;;;10.43;7.30;;;;;;;;;;5043091;28;20409;-61
2023/08/24 01:51:30;;;;;;;10.90;7.25;;;;;;;;;;5049550;28;20522;-61
2023/08/24 01:53:58;;;;;;;10.23;7.70;;;;;;;;;;5045903;28;20487;-61
2023/08/24 01:56:25;;;;;;;10.52;7.43;;;;;;;;;;5049624;28;20449;-61
2023/08/24 01:58:52;;;;;;;9.63;6.80;;;;;;;;;;5049650;28;20487;-61
2023/08/24 02:01:20;;;;;;;9.27;6.78;;;;;;;;;;5049069;28;20425;-61
2023/08/24 02:03:47;;;;;;;10.93;7.22;;;;;;;;;;5043047;28;20417;-61
2023/08/24 02:06:14;;;;;;;11.07;8.02;;;;;;;;;;5051542;28;20746;-61
2023/08/24 02:08:42;;;;;;;11.70;8.23;;;;;;;;;;5045986;28;20410;-59
2023/08/24 02:11:09;;;;;;;10.40;7.57;;;;;;;;;;5052858;28;20413;-61
2023/08/24 02:13:36;;;;;;;9.25;7.53;;;;;;;;;;5046247;28;20485;-61
2023/08/24 02:16:04;;;;;;;11.25;7.93;;;;;;;;;;5051138;28;20410;-61
2023/08/24 02:18:32;;;;;;;12.43;7.53;;;;;;;;;;5045379;28;20423;-61
2023/08/24 02:21:00;;;;;;;10.65;7.38;;;;;;;;;;5049585;28;20867;-61
2023/08/24 02:23:27;;;;;;;12.13;7.00;;;;;;;;;;5043162;28;20415;-61
2023/08/24 02:25:54;;;;;;;10.32;7.63;;;;;;;;;;5050800;28;20463;-61
2023/08/24 02:28:21;;;;;;;9.70;7.13;;;;;;;;;;5048875;28;20413;-61
2023/08/24 02:30:48;;;;;;;9.80;7.35;;;;;;;;;;5052989;28;20491;-61
2023/08/24 02:33:15;;;;;;;10.85;7.13;;;;;;;;;;5045969;28;20417;-61
2023/08/24 02:35:44;;;;;;;10.32;7.15;;;;;;;;;;5048357;28;20421;-61
2023/08/24 02:38:11;;;;;;;8.80;6.78;;;;;;;;;;5045507;28;20425;-61
2023/08/24 02:40:38;;;;;;;11.30;7.27;;;;;;;;;;5049666;28;20563;-61
2023/08/24 02:43:05;;;;;;;11.68;7.72;;;;;;;;;;5045058;28;20475;-61
2023/08/24 02:45:32;;;;;;;7.22;6.40;;;;;;;;;;5047652;28;20419;-61
2023/08/24 02:47:59;;;;;;;10.93;6.70;;;;;;;;;;5048968;28;20443;-61
2023/08/24 02:50:26;;;;;;;8.90;6.65;;;;;;;;;;5049706;28;20475;-61
2023/08/24 02:52:55;;;;;;;10.27;6.88;;;;;;;;;;5054199;28;20810;-61
2023/08/24 02:55:22;;;;;;;10.02;7.10;;;;;;;;;;5060602;28;20542;-61
2023/08/24 02:57:48;;;;;;;8.10;6.93;;;;;;;;;;5051055;28;20413;-61
2023/08/24 03:00:15;;;;;;;10.73;7.00;;;;;;;;;;5047649;28;20468;-61
2023/08/24 03:02:42;;;;;;;9.20;6.90;;;;;;;;;;5047073;28;20811;-59
2023/08/24 03:05:10;;;;;;;11.23;7.25;;;;;;;;;;5048822;28;20413;-60
2023/08/24 03:07:37;;;;;;;12.45;7.20;;;;;;;;;;5045550;28;20414;-61
2023/08/24 03:10:05;;;;;;;8.85;6.97;;;;;;;;;;5050007;28;20420;-61
2023/08/24 03:12:32;;;;;;;10.10;6.40;;;;;;;;;;5047876;28;20518;-61
2023/08/24 03:14:59;;;;;;;8.98;6.30;;;;;;;;;;5046676;28;20418;-62
2023/08/24 03:17:26;;;;;;;9.25;5.78;;;;;;;;;;5046743;28;20464;-62
2023/08/24 03:19:53;;;;;;;9.63;5.90;;;;;;;;;;5048972;28;20891;-63
2023/08/24 03:22:20;;;;;;;12.35;6.20;;;;;;;;;;5047591;28;20428;-61
2023/08/24 03:24:47;;;;;;;9.60;5.97;;;;;;;;;;5040292;28;20409;-61
2023/08/24 03:27:16;;;;;;;9.30;6.30;;;;;;;;;;5049688;28;20443;-61
2023/08/24 03:29:43;;;;;;;11.25;6.63;;;;;;;;;;5048363;28;20424;-61
2023/08/24 03:32:10;;;;;;;8.52;5.60;;;;;;;;;;5046352;28;20470;-61
2023/08/24 03:34:37;;;;;;;9.38;5.65;;;;;;;;;;5046512;28;20415;-61
2023/08/24 03:37:04;;;;;;;9.40;5.70;;;;;;;;;;5046723;28;20843;-61
2023/08/24 03:39:31;;;;;;;8.88;5.68;;;;;;;;;;5042888;28;20418;-61
2023/08/24 03:41:58;;;;;;;7.43;5.40;;;;;;;;;;5046363;28;20432;-61
2023/08/24 03:44:26;;;;;;;9.07;5.50;;;;;;;;;;5042401;28;20411;-61
2023/08/24 03:46:53;;;;;;;7.60;5.07;;;;;;;;;;5049596;28;20470;-61
2023/08/24 03:49:20;;;;;;;6.28;5.13;;;;;;;;;;5044548;28;20955;-61
2023/08/24 03:51:47;;;;;;;6.65;4.75;;;;;;;;;;5049707;28;20409;-61
2023/08/24 03:54:14;;;;;;;8.10;4.70;;;;;;;;;;5045037;28;20415;-60
2023/08/24 03:56:41;;;;;;;6.88;5.35;;;;;;;;;;5047100;28;20411;-61
2023/08/24 03:59:08;;;;;;;9.83;5.70;;;;;;;;;;5048496;28;20420;-61
2023/08/24 04:01:36;;;;;;;9.00;5.03;;;;;;;;;;5046768;28;20522;-61
2023/08/24 04:04:03;;;;;;;7.70;4.88;;;;;;;;;;5039587;28;20409;-61
2023/08/24 04:06:30;;;;;;;7.03;5.28;;;;;;;;;;5045472;28;20442;-61
2023/08/24 04:08:57;;;;;;;7.87;5.30;;;;;;;;;;5044454;28;20418;-61
2023/08/24 04:11:24;;;;;;;7.63;5.18;;;;;;;;;;5047309;28;20466;-61
2023/08/24 04:13:51;;;;;;;8.00;5.90;;;;;;;;;;5043663;28;20417;-61
2023/08/24 04:16:18;;;;;;;10.07;5.30;;;;;;;;;;5048977;28;20855;-62
2023/08/24 04:18:47;;;;;;;9.02;5.80;;;;;;;;;;5044134;28;20492;-62
2023/08/24 04:21:14;;;;;;;8.17;5.73;;;;;;;;;;5046098;28;20475;-60
2023/08/24 04:23:44;;;;;;;7.45;5.40;;;;;;;;;;5042164;28;20432;-62
2023/08/24 04:26:11;;;;;;;9.18;5.40;;;;;;;;;;5046327;28;20823;-62
2023/08/24 04:28:38;;;;;;;8.57;5.72;;;;;;;;;;5041396;28;20411;-62
2023/08/24 04:31:05;;;;;;;6.90;5.30;;;;;;;;;;5046904;28;20405;-62
2023/08/24 04:33:32;;;;;;;7.40;5.65;;;;;;;;;;5040309;28;20415;-62
2023/08/24 04:36:01;;;;;;;11.80;5.65;;;;;;;;;;5046534;28;20409;-62
2023/08/24 04:38:29;;;;;;;8.82;5.65;;;;;;;;;;5042671;28;20471;-62
2023/08/24 04:40:56;;;;;;;8.65;5.65;;;;;;;;;;5046246;28;20421;-63
2023/08/24 04:43:25;;;;;;;7.93;5.47;;;;;;;;;;5042656;28;20497;-61
2023/08/24 04:45:52;;;;;;;7.18;5.50;;;;;;;;;;5043038;28;20459;-60
2023/08/24 04:48:20;;;;;;;9.15;5.45;;;;;;;;;;5042155;28;20405;-59
2023/08/24 04:50:47;;;;;;;8.07;5.87;;;;;;;;;;5045038;28;20409;-59
2023/08/24 04:53:16;;;;;;;7.35;5.72;;;;;;;;;;5042750;28;20417;-60
2023/08/24 04:55:43;;;;;;;9.35;6.15;;;;;;;;;;5043811;28;20750;-61
2023/08/24 04:58:10;;;;;;;10.02;6.75;;;;;;;;;;5042535;28;20414;-60
2023/08/24 05:00:37;;;;;;;8.70;6.57;;;;;;;;;;5043433;28;20411;-60
2023/08/24 05:03:06;;;;;;;11.07;6.83;;;;;;;;;;5045116;28;20425;-60
2023/08/24 05:05:33;;;;;;;10.90;7.03;;;;;;;;;;5045341;28;20415;-60
2023/08/24 05:08:00;;;;;;;7.85;6.80;;;;;;;;;;5045327;28;20416;-61
2023/08/24 05:10:31;;;;;;;9.77;7.10;;;;;;;;;;5042411;28;20411;-59
2023/08/24 05:12:58;;;;;;;8.75;6.75;;;;;;;;;;5042934;28;20397;-60
2023/08/24 05:15:25;;;;;;;10.35;7.03;;;;;;;;;;5041755;28;20469;-61
2023/08/24 05:17:54;;;;;;;12.00;6.95;;;;;;;;;;5044855;28;20401;-61
2023/08/24 05:20:21;;;;;;;10.30;7.13;;;;;;;;;;5041772;28;20481;-60
2023/08/24 05:22:48;;;;;;;12.82;7.53;;;;;;;;;;5044067;28;20962;-63
2023/08/24 05:25:17;;;;;;;11.00;7.25;;;;;;;;;;5046031;28;20527;-62
2023/08/24 05:27:46;;;;;;;9.17;6.90;;;;;;;;;;5049920;28;20520;-60
2023/08/24 05:30:13;;;;;;;9.38;6.93;;;;;;;;;;5046779;28;20478;-60
2023/08/24 05:32:40;;;;;;;8.57;6.47;;;;;;;;;;5049474;28;20465;-63
2023/08/24 05:35:08;;;;;;;10.60;6.72;;;;;;;;;;5045157;28;20409;-60
2023/08/24 05:37:35;;;;;;;10.48;7.00;;;;;;;;;;5048484;28;20422;-61
2023/08/24 05:40:02;;;;;;;9.50;6.45;;;;;;;;;;5047385;28;20416;-61
2023/08/24 05:42:29;;;;;;;8.45;6.10;;;;;;;;;;5048162;28;20460;-60
2023/08/24 05:44:58;;;;;;;9.05;6.47;;;;;;;;;;5048045;28;20865;-60
2023/08/24 05:47:25;;;;;;;11.82;6.55;;;;;;;;;;5048673;28;20421;-61
2023/08/24 05:49:52;;;;;;;13.63;6.47;;;;;;;;;;5042562;28;20409;-62
2023/08/24 05:52:19;;;;;;;9.30;6.43;;;;;;;;;;5046920;28;20459;-62
2023/08/24 05:54:46;;;;;;;10.82;6.80;;;;;;;;;;5045766;28;20421;-62
2023/08/24 05:57:13;;;;;;;10.88;6.78;;;;;;;;;;5052219;28;20418;-62
2023/08/24 05:59:39;;;;;;;9.70;6.30;;;;;;;;;;5044722;28;20947;-61
2023/08/24 06:02:08;;;;;;;11.05;6.18;;;;;;;;;;5050235;28;20425;-62
2023/08/24 06:04:35;;;;;;;9.63;6.50;;;;;;;;;;5043649;28;20411;-62
2023/08/24 06:07:04;;;;;;;12.13;7.00;;;;;;;;;;5049825;28;20421;-62
2023/08/24 06:09:31;;;;;;;9.07;6.70;;;;;;;;;;5042660;28;20423;-61
2023/08/24 06:11:58;;;;;;;11.52;7.13;;;;;;;;;;5049540;28;20468;-61
2023/08/24 06:14:25;;;;;;;10.02;6.35;;;;;;;;;;5042646;28;20407;-61
2023/08/24 06:16:53;;;;;;;10.00;6.53;;;;;;;;;;5045020;28;20466;-62
2023/08/24 06:19:21;;;;;;;11.90;6.40;;;;;;;;;;5045815;28;20492;-61
2023/08/24 06:21:48;;;;;;;8.82;6.55;;;;;;;;;;5047895;28;20468;-62
2023/08/24 06:24:15;;;;;;;11.07;6.50;;;;;;;;;;5045432;28;21687;-62
2023/08/24 06:26:43;;;;;;;9.57;6.55;;;;;;;;;;5047074;28;20411;-61
2023/08/24 06:29:10;;;;;;;13.27;6.40;;;;;;;;;;5045479;28;20409;-62
2023/08/24 06:31:37;;;;;;;12.55;6.70;;;;;;;;;;5056669;28;20410;-66
2023/08/24 06:34:04;;;;;;;10.93;6.30;;;;;;;;;;5073441;28;20409;-65
2023/08/24 06:36:32;;;;;;;9.27;5.80;;;;;;;;;;5048030;28;20415;-64
2023/08/24 06:38:59;;;;;;;9.75;6.18;;;;;;;;;;5047506;28;20455;-65
2023/08/24 06:41:26;;;;;;;9.68;5.65;;;;;;;;;;5048598;28;20421;-65
2023/08/24 06:43:55;;;;;;;9.77;6.03;;;;;;;;;;5043634;28;20531;-65
2023/08/24 06:46:22;;;;;;;8.00;5.63;;;;;;;;;;5048031;28;20413;-65
2023/08/24 06:48:49;;;;;;;9.70;5.43;;;;;;;;;;5052014;28;20417;-65
2023/08/24 06:51:16;;;;;;;13.43;5.22;;;;;;;;;;5047747;28;20444;-65
2023/08/24 06:56:20;;;;;;;14.25;5.90;;;;;;;;;;5180064;22;20909;-65
2023/08/24 06:58:49;;;;;;;9.43;5.72;;;;;;;;;;5081220;28;20429;-65
2023/08/24 07:01:16;;;;;;;9.15;5.35;;;;;;;;;;5082701;28;20471;-65
2023/08/24 07:03:43;;;;;;;10.52;5.38;;;;;;;;;;5067549;28;20437;-65
2023/08/24 07:06:11;;;;;;;10.52;6.65;;;;;;;;;;5071534;28;20411;-65
2023/08/24 07:08:39;;;;;;;11.45;5.97;;;;;;;;;;5073156;28;20529;-66
2023/08/24 07:11:06;;;;;;;9.10;5.47;;;;;;;;;;5065740;28;20415;-66
2023/08/24 07:13:35;;;;;;;8.50;5.35;;;;;;;;;;5070284;28;20411;-66
2023/08/24 07:16:03;;;;;;;10.60;5.65;;;;;;;;;;5070715;28;20423;-65
2023/08/24 07:18:30;;;;;;;8.75;5.65;;;;;;;;;;5067217;28;20862;-66
2023/08/24 07:20:57;;;;;;;10.43;6.00;;;;;;;;;;5069499;28;20407;-65
2023/08/24 07:23:25;;;;;;;11.48;6.30;;;;;;;;;;5071571;28;20431;-65
2023/08/24 07:25:52;;;;;;;8.27;5.17;;;;;;;;;;5071626;28;20423;-65
2023/08/24 07:28:19;;;;;;;10.13;5.28;;;;;;;;;;5066130;28;20526;-65
2023/08/24 07:30:48;;;;;;;8.40;5.30;;;;;;;;;;5067874;28;20921;-66
2023/08/24 07:33:15;;;;;;;15.00;5.43;;;;;;;;;;5059946;28;20403;-67
2023/08/24 07:35:42;;;;;;;8.55;5.30;;;;;;;;;;5062838;28;20432;-65
2023/08/24 07:38:09;;;;;;;7.80;5.30;;;;;;;;;;5070321;28;20483;-65
2023/08/24 07:40:37;;;;;;;10.77;6.97;;;;;;;;;;5075269;28;20438;-65
2023/08/24 07:43:04;;;;;;;13.35;6.28;;;;;;;;;;5070751;28;20434;-64
2023/08/24 07:45:31;;;;;;;14.00;5.53;;;;;;;;;;5063713;28;20417;-65
2023/08/24 07:47:59;;;;;;;10.88;5.78;;;;;;;;;;5071663;28;20525;-64
2023/08/24 07:50:26;;;;;;;9.00;4.88;;;;;;;;;;5064398;28;20416;-65
2023/08/24 07:52:53;;;;;;;9.25;5.55;;;;;;;;;;5074194;28;20503;-61
2023/08/24 07:55:21;;;;;;;9.60;5.15;;;;;;;;;;5065821;28;20494;-64
2023/08/24 07:57:48;;;;;;;9.65;5.07;;;;;;;;;;5067891;28;20910;-61
2023/08/24 08:00:16;;;;;;;9.47;4.73;;;;;;;;;;5067168;28;20859;-62
2023/08/24 08:02:43;;;;;;;8.65;4.57;;;;;;;;;;5058701;28;20429;-62
2023/08/24 08:05:12;;;;;;;6.70;4.50;;;;;;;;;;5069122;28;20503;-62
2023/08/24 08:07:39;;;;;;;6.72;4.53;;;;;;;;;;5067228;28;20417;-61
2023/08/24 08:10:07;;;;;;;9.70;4.35;;;;;;;;;;5066566;28;20920;-61
2023/08/24 08:12:34;;;;;;;8.95;4.25;;;;;;;;;;5064483;28;20484;-62
2023/08/24 08:15:01;;;;;;;5.90;3.90;;;;;;;;;;5063557;28;20412;-62
2023/08/24 08:17:30;;;;;;;9.98;4.20;;;;;;;;;;5064459;28;20410;-62
2023/08/24 08:19:57;;;;;;;7.68;3.50;;;;;;;;;;5061932;28;20423;-62
2023/08/24 08:22:26;;;;;;;6.97;3.80;;;;;;;;;;5064198;28;20431;-63
2023/08/24 08:24:55;;;;;;;7.37;3.70;;;;;;;;;;5065455;28;20494;-63
2023/08/24 08:27:22;;;;;;;5.72;3.47;;;;;;;;;;5056094;28;20409;-62
2023/08/24 08:29:50;;;;;;;6.93;3.67;;;;;;;;;;5058816;28;20432;-63
2023/08/24 08:32:17;;;;;;;7.03;3.42;;;;;;;;;;5060236;28;20415;-62
2023/08/24 08:34:44;;;;;;;5.40;3.30;;;;;;;;;;5066818;28;20807;-65
2023/08/24 08:37:11;;;;;;;5.80;3.30;;;;;;;;;;5066372;28;20415;-63
2023/08/24 08:39:39;;;;;;;6.83;3.27;;;;;;;;;;5060021;28;20852;-64
2023/08/24 08:42:12;;;;;;;4.90;3.25;;;;;;;;;;5060568;28;20419;-64
2023/08/24 08:44:40;;;;;;;5.70;3.20;;;;;;;;;;5053998;28;20500;-64
2023/08/24 08:47:08;;;;;;;6.10;3.60;;;;;;;;;;5057971;28;20487;-63
2023/08/24 08:49:36;;;;;;;6.97;3.25;;;;;;;;;;5053084;28;20484;-64
2023/08/24 08:52:03;;;;;;;7.00;3.17;;;;;;;;;;5052849;28;20550;-64
2023/08/24 08:54:30;;;;;;;6.50;3.40;;;;;;;;;;5065254;28;20479;-59
2023/08/24 08:56:59;;;;;;;6.47;3.50;;;;;;;;;;5053526;28;20432;-60
2023/08/24 08:59:29;;;;;;;7.35;3.10;;;;;;;;;;5063471;28;20409;-62
2023/08/24 09:01:56;;;;;;;28.92;6.32;;;;;;;;;;5065154;28;20455;-61
2023/08/24 09:04:23;;;;;;;9.77;3.60;;;;;;;;;;5068032;28;20431;-58
2023/08/24 09:06:50;;;;;;;16.52;4.00;;;;;;;;;;5066084;28;20413;-71
2023/08/24 09:09:18;;;;;;;7.68;3.30;;;;;;;;;;5068383;28;20450;-62
2023/08/24 09:11:47;;;;;;;5.23;3.30;;;;;;;;;;5059158;28;20424;-63
2023/08/24 09:14:15;;;;;;;6.43;3.37;;;;;;;;;;5064991;28;20841;-61
2023/08/24 09:16:43;;;;;;;7.03;3.10;;;;;;;;;;5068324;28;20407;-62
2023/08/24 09:19:12;;;;;;;5.73;3.17;;;;;;;;;;5073029;28;20438;-61
2023/08/24 09:21:41;;;;;;;5.77;3.17;;;;;;;;;;5064126;28;20504;-61
2023/08/24 09:24:08;;;;;;;6.78;3.70;;;;;;;;;;5070130;28;20936;-61
2023/08/24 09:26:37;;;;;;;9.38;3.55;;;;;;;;;;5063674;28;20417;-60
2023/08/24 09:29:12;;;;;;;6.95;3.38;;;;;;;;;;5071311;28;20960;-62
2023/08/24 09:31:41;;;;;;;8.20;3.60;;;;;;;;;;5064193;28;21163;-62
2023/08/24 09:34:08;;;;;;;6.35;3.40;;;;;;;;;;5070132;28;20407;-63
2023/08/24 09:36:35;;;;;;;5.50;3.30;;;;;;;;;;5062947;28;20883;-62
2023/08/24 09:39:04;;;;;;;6.53;3.17;;;;;;;;;;5071088;28;20461;-64
2023/08/24 09:41:41;;;;;;;7.63;3.30;;;;;;;;;;5066618;28;20422;-62
2023/08/24 09:44:08;;;;;;;5.97;3.20;;;;;;;;;;5068447;28;20431;-64
2023/08/24 09:46:36;;;;;;;5.18;3.17;;;;;;;;;;5073113;28;20465;-64
2023/08/24 09:49:06;;;;;;;5.70;3.15;;;;;;;;;;5069377;28;20461;-64
2023/08/24 09:51:33;;;;;;;6.60;3.30;;;;;;;;;;5066138;28;20419;-64
2023/08/24 09:54:04;;;;;;;7.05;3.40;;;;;;;;;;5064762;28;20399;-65
2023/08/24 09:56:33;;;;;;;17.00;4.43;;;;;;;;;;5065406;28;20416;-64
2023/08/24 09:59:02;;;;;;;11.40;4.50;;;;;;;;;;5068139;28;20418;-64
2023/08/24 10:01:30;;;;;;;8.52;4.00;;;;;;;;;;5064736;28;20502;-65
2023/08/24 10:03:58;;;;;;;8.23;3.80;;;;;;;;;;5068907;28;20481;-65
2023/08/24 10:06:29;;;;;;;6.18;3.13;;;;;;;;;;5071321;28;20890;-64
2023/08/24 10:09:00;;;;;;;6.80;3.40;;;;;;;;;;5069829;28;20499;-64
2023/08/24 10:11:28;;;;;;;5.78;3.47;;;;;;;;;;5090340;28;20408;-64
2023/08/24 10:14:00;;;;;;;9.38;4.30;;;;;;;;;;5092064;28;20410;-65
2023/08/24 10:16:28;;;;;;;6.72;3.42;;;;;;;;;;5085906;28;20487;-66
2023/08/24 10:18:55;;;;;;;4.90;3.40;;;;;;;;;;5066345;28;20465;-65
2023/08/24 10:21:24;;;;;;;5.03;3.17;;;;;;;;;;5064893;28;20844;-65
2023/08/24 10:23:53;;;;;;;7.65;3.20;;;;;;;;;;5072325;28;20459;-64
2023/08/24 10:26:21;;;;;;;7.05;3.50;;;;;;;;;;5066851;28;20407;-67
2023/08/24 10:28:48;;;;;;;5.07;3.40;;;;;;;;;;5064440;28;20500;-69
2023/08/24 10:31:15;;;;;;;6.23;3.13;;;;;;;;;;5059008;28;20533;-66
2023/08/24 10:33:44;;;;;;;5.50;3.10;;;;;;;;;;5059721;28;20406;-66
2023/08/24 10:36:11;;;;;;;6.10;4.03;;;;;;;;;;5069403;28;20507;-65
2023/08/24 10:38:42;;;;;;;5.57;3.17;;;;;;;;;;5066629;28;20412;-64
2023/08/24 10:41:12;;;;;;;5.63;3.40;;;;;;;;;;5070915;28;20404;-64
2023/08/24 10:43:40;;;;;;;6.80;3.00;;;;;;;;;;5065777;28;20428;-64
2023/08/24 10:46:13;;;;;;;4.22;2.95;;;;;;;;;;5071270;28;20978;-64
2023/08/24 10:48:54;;;;;;;6.67;2.97;;;;;;;;;;5069679;28;20415;-64
2023/08/24 10:51:25;;;;;;;4.20;2.78;;;;;;;;;;5067483;28;20412;-64
2023/08/24 10:53:53;;;;;;;3.97;2.55;;;;;;;;;;5067683;28;20897;-64
2023/08/24 10:56:22;;;;;;;4.90;2.95;;;;;;;;;;5068926;28;20416;-64
2023/08/24 10:59:09;;;;;;;4.53;2.90;;;;;;;;;;5067956;28;20408;-64
2023/08/24 11:01:39;;;;;;;3.97;2.53;;;;;;;;;;5064082;28;20439;-64
2023/08/24 11:04:07;;;;;;;4.68;2.72;;;;;;;;;;5067071;28;20427;-65
2023/08/24 11:06:34;;;;;;;5.07;2.70;;;;;;;;;;5067232;28;20413;-65
2023/08/24 11:09:13;;;;;;;5.28;2.80;;;;;;;;;;5068133;28;20802;-65
2023/08/24 11:11:42;;;;;;;4.55;2.75;;;;;;;;;;5067531;28;21281;-64
2023/08/24 11:14:16;;;;;;;3.83;2.60;;;;;;;;;;5067697;28;20820;-69
2023/08/24 11:16:44;;;;;;;5.15;2.53;;;;;;;;;;5065920;28;20447;-68
2023/08/24 11:19:12;;;;;;;6.50;2.97;;;;;;;;;;5067756;28;21126;-69
2023/08/24 11:21:39;;;;;;;5.05;2.80;;;;;;;;;;5063540;28;20456;-66
2023/08/24 11:24:07;;;;;;;4.40;2.80;;;;;;;;;;5068393;28;20428;-65
2023/08/24 11:26:34;;;;;;;4.50;2.90;;;;;;;;;;5063968;28;20419;-65
2023/08/24 11:29:05;;;;;;;4.78;2.50;;;;;;;;;;5069914;28;20461;-67
2023/08/24 11:31:34;;;;;;;5.27;2.90;;;;;;;;;;5062557;28;20413;-66
2023/08/24 11:34:01;;;;;;;5.22;2.90;;;;;;;;;;5064152;28;20411;-65
2023/08/24 11:36:27;;;;;;;6.75;3.35;;;;;;;;;;5061791;28;20410;-65
2023/08/24 11:38:57;;;;;;;4.95;2.65;;;;;;;;;;5067189;28;20471;-64
2023/08/24 11:41:24;;;;;;;4.32;2.47;;;;;;;;;;5062074;28;20412;-65
2023/08/24 11:43:59;;;;;;;5.82;2.72;;;;;;;;;;5066139;28;20433;-64
2023/08/24 11:46:29;;;;;;;5.00;2.65;;;;;;;;;;5061306;28;20417;-65
2023/08/24 11:48:56;;;;;;;4.55;2.70;;;;;;;;;;5066488;28;20413;-65
2023/08/24 11:51:23;;;;;;;4.47;2.80;;;;;;;;;;5067546;28;20995;-67
2023/08/24 11:53:50;;;;;;;5.32;2.60;;;;;;;;;;5065578;28;20409;-66
2023/08/24 11:56:18;;;;;;;4.95;2.60;;;;;;;;;;5063789;28;20412;-67
2023/08/24 11:58:49;;;;;;;4.50;2.50;;;;;;;;;;5066472;28;20459;-68
2023/08/24 12:01:17;;;;;;;4.28;2.92;;;;;;;;;;5060592;28;20953;-67
2023/08/24 12:03:45;;;;;;;6.30;3.03;;;;;;;;;;5061746;28;20440;-66
2023/08/24 12:06:12;;;;;;;5.93;3.03;;;;;;;;;;5070509;28;20419;-66
2023/08/24 12:08:40;;;;;;;4.40;2.85;;;;;;;;;;5064237;28;20417;-65
2023/08/24 12:11:11;;;;;;;5.60;2.80;;;;;;;;;;5067276;28;20808;-65
2023/08/24 12:13:38;;;;;;;4.03;2.60;;;;;;;;;;5068398;28;20404;-65
2023/08/24 12:16:06;;;;;;;4.67;2.77;;;;;;;;;;5067111;28;20469;-65
2023/08/24 12:18:37;;;;;;;4.80;2.70;;;;;;;;;;5068364;28;20493;-64
2023/08/24 12:21:05;;;;;;;4.88;3.03;;;;;;;;;;5065309;28;20407;-66
2023/08/24 12:23:32;;;;;;;4.95;2.95;;;;;;;;;;5076219;28;20433;-66
2023/08/24 12:25:59;;;;;;;4.65;2.85;;;;;;;;;;5068531;28;20894;-65
2023/08/24 12:28:27;;;;;;;8.10;2.83;;;;;;;;;;5064365;28;20461;-64
2023/08/24 12:30:54;;;;;;;6.20;3.10;;;;;;;;;;5060218;28;20437;-63
2023/08/24 12:33:25;;;;;;;5.35;2.92;;;;;;;;;;5057782;28;20408;-63
2023/08/24 12:35:52;;;;;;;6.30;2.75;;;;;;;;;;5064678;28;20408;-64
2023/08/24 12:38:21;;;;;;;7.32;3.22;;;;;;;;;;5065097;28;20883;-63
2023/08/24 12:40:48;;;;;;;5.70;3.00;;;;;;;;;;5059232;28;20444;-64
2023/08/24 12:43:15;;;;;;;5.45;3.10;;;;;;;;;;5055818;28;20417;-63
2023/08/24 12:45:42;;;;;;;5.88;3.00;;;;;;;;;;5060848;28;20757;-63
2023/08/24 12:48:09;;;;;;;7.22;3.22;;;;;;;;;;5052997;28;20417;-63
2023/08/24 12:50:36;;;;;;;6.88;3.03;;;;;;;;;;5057615;28;20414;-64
2023/08/24 12:53:05;;;;;;;8.18;3.28;;;;;;;;;;5052630;28;20420;-64
2023/08/24 12:55:34;;;;;;;7.60;3.27;;;;;;;;;;5057635;28;20790;-64
2023/08/24 12:58:01;;;;;;;6.68;3.40;;;;;;;;;;5056628;28;20507;-64
2023/08/24 13:00:28;;;;;;;6.65;3.22;;;;;;;;;;5055002;28;20413;-65
2023/08/24 13:02:55;;;;;;;5.75;3.13;;;;;;;;;;5056870;28;20471;-65
2023/08/24 13:05:22;;;;;;;7.57;3.45;;;;;;;;;;5063741;28;20500;-63
2023/08/24 13:07:50;;;;;;;5.00;3.30;;;;;;;;;;5060702;28;20412;-63
2023/08/24 13:10:17;;;;;;;6.07;3.40;;;;;;;;;;5066832;28;20484;-63
2023/08/24 13:12:46;;;;;;;6.13;3.08;;;;;;;;;;5060002;28;20420;-64
2023/08/24 13:15:13;;;;;;;6.00;3.53;;;;;;;;;;5066335;28;20898;-65
2023/08/24 13:17:40;;;;;;;7.55;3.45;;;;;;;;;;5056322;28;20962;-65
2023/08/24 13:20:08;;;;;;;6.13;3.30;;;;;;;;;;5068303;28;20494;-63
2023/08/24 13:22:35;;;;;;;7.00;3.42;;;;;;;;;;5074132;28;20481;-64
2023/08/24 13:25:02;;;;;;;6.65;3.35;;;;;;;;;;5077123;28;20495;-65
2023/08/24 13:27:29;;;;;;;6.05;3.22;;;;;;;;;;5068059;28;20428;-65
2023/08/24 13:30:01;;;;;;;5.87;3.10;;;;;;;;;;5065666;28;20418;-65
2023/08/24 13:32:28;;;;;;;6.95;3.35;;;;;;;;;;5063263;28;20407;-64
2023/08/24 13:34:55;;;;;;;7.93;3.22;;;;;;;;;;5064659;28;20409;-64
2023/08/24 13:37:23;;;;;;;6.15;3.25;;;;;;;;;;5062498;28;20411;-64
2023/08/24 13:39:49;;;;;;;5.55;3.13;;;;;;;;;;5062060;28;20410;-65
2023/08/24 13:42:17;;;;;;;7.50;3.25;;;;;;;;;;5058613;28;20456;-62
2023/08/24 13:44:44;;;;;;;4.85;3.00;;;;;;;;;;5066872;28;20449;-66
2023/08/24 13:47:12;;;;;;;5.85;2.85;;;;;;;;;;5074307;28;20407;-65
2023/08/24 13:49:39;;;;;;;7.18;3.38;;;;;;;;;;5066149;28;20428;-65
2023/08/24 13:52:06;;;;;;;6.25;3.22;;;;;;;;;;5065923;28;20415;-65
2023/08/24 13:54:33;;;;;;;6.03;3.30;;;;;;;;;;5069675;28;20455;-64
2023/08/24 13:57:01;;;;;;;5.13;3.03;;;;;;;;;;5081416;28;20407;-64
2023/08/24 13:59:28;;;;;;;6.07;3.30;;;;;;;;;;5082533;28;20416;-64
2023/08/24 14:01:55;;;;;;;6.63;3.30;;;;;;;;;;5060784;28;20421;-64
2023/08/24 14:04:23;;;;;;;6.87;3.43;;;;;;;;;;5066368;28;20635;-64
2023/08/24 14:06:50;;;;;;;5.00;2.85;;;;;;;;;;5065939;28;20474;-64
2023/08/24 14:09:18;;;;;;;5.20;3.35;;;;;;;;;;5067911;28;20890;-64
2023/08/24 14:11:45;;;;;;;6.45;3.42;;;;;;;;;;5065005;28;20844;-64
2023/08/24 14:14:12;;;;;;;8.07;3.35;;;;;;;;;;5067134;28;20408;-64
2023/08/24 14:16:39;;;;;;;7.72;3.40;;;;;;;;;;5063976;28;20499;-64
2023/08/24 14:19:06;;;;;;;7.13;3.10;;;;;;;;;;5066945;28;20876;-65
2023/08/24 14:21:34;;;;;;;7.10;3.13;;;;;;;;;;5064714;28;20415;-64
2023/08/24 14:24:01;;;;;;;6.88;3.40;;;;;;;;;;5066065;28;20490;-66
2023/08/24 14:26:28;;;;;;;5.75;3.30;;;;;;;;;;5067427;28;20755;-63
2023/08/24 14:28:56;;;;;;;5.20;3.28;;;;;;;;;;5065056;28;20413;-65
2023/08/24 14:31:24;;;;;;;6.45;3.50;;;;;;;;;;5065522;28;20814;-64
2023/08/24 14:33:51;;;;;;;6.45;3.40;;;;;;;;;;5062897;28;20737;-66
2023/08/24 14:36:18;;;;;;;6.70;3.20;;;;;;;;;;5073094;28;20407;-65
2023/08/24 14:38:47;;;;;;;5.85;3.13;;;;;;;;;;5064289;28;20420;-64
2023/08/24 14:41:14;;;;;;;6.88;3.47;;;;;;;;;;5070409;28;20913;-63
2023/08/24 14:43:41;;;;;;;5.93;3.70;;;;;;;;;;5066138;28;20417;-65